sensor_id;sensor_type;location;lat;lon;timestamp;temperature;humidity
8662;DHT22;29684;47.722;9.388;2022-09-13T00:01:51;12.60;99.90
8662;DHT22;29684;47.722;9.388;2022-09-13T00:04:35;13.30;99.90
8662;DHT22;29684;47.722;9.388;2022-09-13T00:07:19;12.90;99.90
8662;DHT22;29684;47.722;9.388;2022-09-13T00:10:04;13.00;99.90
8662;DHT22;29684;47.722;9.388;2022-09-13T00:12:49;13.10;99.90
8662;DHT22;29684;47.722;9.388;2022-09-13T00:15:34;13.10;99.90
8662;DHT22;29684;47.722;9.388;2022-09-13T00:18:19;13.20;99.90
8662;DHT22;29684;47.722;9.388;2022-09-13T00:21:08;13.00;99.90
8662;DHT22;29684;47.722;9.388;2022-09-13T00:23:54;13.20;99.90
8662;DHT22;29684;47.722;9.388;2022-09-13T00:26:38;13.30;99.90
8662;DHT22;29684;47.722;9.388;2022-09-13T00:29:22;13.30;99.90
8662;DHT22;29684;47.722;9.388;2022-09-13T00:32:06;13.50;99.90
8662;DHT22;29684;47.722;9.388;2022-09-13T00:34:51;13.50;99.90
8662;DHT22;29684;47.722;9.388;2022-09-13T00:37:35;13.30;99.90
8662;DHT22;29684;47.722;9.388;2022-09-13T00:40:20;13.50;99.90
8662;DHT22;29684;47.722;9.388;2022-09-13T00:43:08;13.40;99.90
8662;DHT22;29684;47.722;9.388;2022-09-13T00:45:55;13.40;99.90
8662;DHT22;29684;47.722;9.388;2022-09-13T00:48:39;13.00;99.90
8662;DHT22;29684;47.722;9.388;2022-09-13T00:51:25;12.90;99.90
8662;DHT22;29684;47.722;9.388;2022-09-13T00:54:10;12.90;99.90
8662;DHT22;29684;47.722;9.388;2022-09-13T00:56:58;12.90;99.90
8662;DHT22;29684;47.722;9.388;2022-09-13T00:59:55;12.50;99.90
8662;DHT22;29684;47.722;9.388;2022-09-13T01:02:49;12.30;99.90
8662;DHT22;29684;47.722;9.388;2022-09-13T01:05:41;12.10;99.90
8662;DHT22;29684;47.722;9.388;2022-09-13T01:08:28;12.10;99.90
8662;DHT22;29684;47.722;9.388;2022-09-13T01:11:26;12.00;99.90
8662;DHT22;29684;47.722;9.388;2022-09-13T01:14:12;11.90;99.90
8662;DHT22;29684;47.722;9.388;2022-09-13T01:16:57;12.00;99.90
8662;DHT22;29684;47.722;9.388;2022-09-13T01:19:41;11.90;99.90
8662;DHT22;29684;47.722;9.388;2022-09-13T01:31:44;12.00;99.90
8662;DHT22;29684;47.722;9.388;2022-09-13T01:37:55;11.90;99.90
8662;DHT22;29684;47.722;9.388;2022-09-13T01:41:07;11.90;99.90
8662;DHT22;29684;47.722;9.388;2022-09-13T01:47:26;12.30;99.90
8662;DHT22;29684;47.722;9.388;2022-09-13T01:56:16;12.30;99.90
8662;DHT22;29684;47.722;9.388;2022-09-13T01:59:12;12.20;99.90
8662;DHT22;29684;47.722;9.388;2022-09-13T02:05:04;12.00;99.90
8662;DHT22;29684;47.722;9.388;2022-09-13T02:07:58;11.70;99.90
8662;DHT22;29684;47.722;9.388;2022-09-13T02:10:48;11.50;99.90
8662;DHT22;29684;47.722;9.388;2022-09-13T02:13:37;11.40;99.90
8662;DHT22;29684;47.722;9.388;2022-09-13T02:16:42;12.20;99.90
8662;DHT22;29684;47.722;9.388;2022-09-13T02:19:36;11.40;99.90
8662;DHT22;29684;47.722;9.388;2022-09-13T02:22:31;11.40;99.90
8662;DHT22;29684;47.722;9.388;2022-09-13T02:25:18;11.50;99.90
8662;DHT22;29684;47.722;9.388;2022-09-13T02:28:08;11.70;99.90
8662;DHT22;29684;47.722;9.388;2022-09-13T02:30:57;11.80;99.90
8662;DHT22;29684;47.722;9.388;2022-09-13T02:33:47;12.00;99.90
8662;DHT22;29684;47.722;9.388;2022-09-13T02:36:37;12.20;99.90
8662;DHT22;29684;47.722;9.388;2022-09-13T02:39:26;12.10;99.90
8662;DHT22;29684;47.722;9.388;2022-09-13T02:42:22;12.20;99.90
8662;DHT22;29684;47.722;9.388;2022-09-13T02:45:11;12.10;99.90
8662;DHT22;29684;47.722;9.388;2022-09-13T02:47:59;12.00;99.90
8662;DHT22;29684;47.722;9.388;2022-09-13T02:57:11;12.00;99.90
8662;DHT22;29684;47.722;9.388;2022-09-13T02:59:57;12.20;99.90
8662;DHT22;29684;47.722;9.388;2022-09-13T03:02:43;12.10;99.90
8662;DHT22;29684;47.722;9.388;2022-09-13T03:05:29;12.00;99.90
8662;DHT22;29684;47.722;9.388;2022-09-13T03:08:15;12.00;99.90
8662;DHT22;29684;47.722;9.388;2022-09-13T03:11:11;12.10;99.90
8662;DHT22;29684;47.722;9.388;2022-09-13T03:14:33;12.10;99.90
8662;DHT22;29684;47.722;9.388;2022-09-13T03:24:01;11.90;99.90
8662;DHT22;29684;47.722;9.388;2022-09-13T03:27:05;11.80;99.90
8662;DHT22;29684;47.722;9.388;2022-09-13T03:30:06;11.70;99.90
8662;DHT22;29684;47.722;9.388;2022-09-13T03:33:11;11.60;99.90
8662;DHT22;29684;47.722;9.388;2022-09-13T03:36:04;11.70;99.90
8662;DHT22;29684;47.722;9.388;2022-09-13T03:41:46;11.60;99.90
8662;DHT22;29684;47.722;9.388;2022-09-13T03:44:36;11.50;99.90
8662;DHT22;29684;47.722;9.388;2022-09-13T03:47:23;11.40;99.90
8662;DHT22;29684;47.722;9.388;2022-09-13T03:50:09;11.40;99.90
8662;DHT22;29684;47.722;9.388;2022-09-13T03:53:02;11.40;99.90
8662;DHT22;29684;47.722;9.388;2022-09-13T03:55:47;11.40;99.90
8662;DHT22;29684;47.722;9.388;2022-09-13T03:58:32;11.50;99.90
8662;DHT22;29684;47.722;9.388;2022-09-13T04:01:21;11.50;99.90
8662;DHT22;29684;47.722;9.388;2022-09-13T04:04:06;11.50;99.90
8662;DHT22;29684;47.722;9.388;2022-09-13T04:06:50;11.60;99.90
8662;DHT22;29684;47.722;9.388;2022-09-13T04:09:34;11.60;99.90
8662;DHT22;29684;47.722;9.388;2022-09-13T04:12:19;11.70;99.90
8662;DHT22;29684;47.722;9.388;2022-09-13T04:15:04;11.80;99.90
8662;DHT22;29684;47.722;9.388;2022-09-13T04:17:49;11.90;99.90
8662;DHT22;29684;47.722;9.388;2022-09-13T04:20:33;11.80;99.90
8662;DHT22;29684;47.722;9.388;2022-09-13T04:23:19;11.70;99.90
8662;DHT22;29684;47.722;9.388;2022-09-13T04:26:04;11.70;99.90
8662;DHT22;29684;47.722;9.388;2022-09-13T04:28:51;11.70;99.90
8662;DHT22;29684;47.722;9.388;2022-09-13T04:31:35;11.80;99.90
8662;DHT22;29684;47.722;9.388;2022-09-13T04:34:21;11.70;99.90
8662;DHT22;29684;47.722;9.388;2022-09-13T04:37:06;11.90;99.90
8662;DHT22;29684;47.722;9.388;2022-09-13T04:39:50;12.00;99.90
8662;DHT22;29684;47.722;9.388;2022-09-13T04:42:34;11.70;99.90
8662;DHT22;29684;47.722;9.388;2022-09-13T04:45:19;11.50;99.90
8662;DHT22;29684;47.722;9.388;2022-09-13T04:48:03;11.40;99.90
8662;DHT22;29684;47.722;9.388;2022-09-13T04:50:47;11.40;99.90
8662;DHT22;29684;47.722;9.388;2022-09-13T04:53:32;11.30;99.90
8662;DHT22;29684;47.722;9.388;2022-09-13T04:56:16;11.50;99.90
8662;DHT22;29684;47.722;9.388;2022-09-13T04:59:02;11.60;99.90
8662;DHT22;29684;47.722;9.388;2022-09-13T05:01:46;11.70;99.90
8662;DHT22;29684;47.722;9.388;2022-09-13T05:04:31;11.70;99.90
8662;DHT22;29684;47.722;9.388;2022-09-13T05:07:15;11.70;99.90
8662;DHT22;29684;47.722;9.388;2022-09-13T05:09:59;11.70;99.90
8662;DHT22;29684;47.722;9.388;2022-09-13T05:12:43;11.60;99.90
8662;DHT22;29684;47.722;9.388;2022-09-13T05:15:27;12.00;99.90
8662;DHT22;29684;47.722;9.388;2022-09-13T05:18:12;11.60;99.90
8662;DHT22;29684;47.722;9.388;2022-09-13T05:20:57;11.70;99.90
8662;DHT22;29684;47.722;9.388;2022-09-13T05:23:42;11.90;99.90
8662;DHT22;29684;47.722;9.388;2022-09-13T05:26:28;12.10;99.90
8662;DHT22;29684;47.722;9.388;2022-09-13T05:29:14;12.10;99.90
8662;DHT22;29684;47.722;9.388;2022-09-13T05:31:59;12.10;99.90
8662;DHT22;29684;47.722;9.388;2022-09-13T05:34:43;12.00;99.90
8662;DHT22;29684;47.722;9.388;2022-09-13T05:37:27;12.20;99.90
8662;DHT22;29684;47.722;9.388;2022-09-13T05:40:11;12.20;99.90
8662;DHT22;29684;47.722;9.388;2022-09-13T05:42:56;12.10;99.90
8662;DHT22;29684;47.722;9.388;2022-09-13T05:45:40;12.80;99.90
8662;DHT22;29684;47.722;9.388;2022-09-13T05:48:24;12.10;99.90
8662;DHT22;29684;47.722;9.388;2022-09-13T05:53:57;12.20;99.90
8662;DHT22;29684;47.722;9.388;2022-09-13T05:56:42;12.30;99.90
8662;DHT22;29684;47.722;9.388;2022-09-13T05:59:26;12.40;99.90
8662;DHT22;29684;47.722;9.388;2022-09-13T06:02:10;12.40;99.90
8662;DHT22;29684;47.722;9.388;2022-09-13T06:04:54;12.50;99.90
8662;DHT22;29684;47.722;9.388;2022-09-13T06:07:39;12.70;99.90
8662;DHT22;29684;47.722;9.388;2022-09-13T06:10:26;13.00;99.90
8662;DHT22;29684;47.722;9.388;2022-09-13T06:13:11;12.90;99.90
8662;DHT22;29684;47.722;9.388;2022-09-13T06:15:56;12.90;99.90
8662;DHT22;29684;47.722;9.388;2022-09-13T06:18:40;13.00;99.90
8662;DHT22;29684;47.722;9.388;2022-09-13T06:21:25;13.10;99.90
8662;DHT22;29684;47.722;9.388;2022-09-13T06:24:09;13.10;99.90
8662;DHT22;29684;47.722;9.388;2022-09-13T06:26:54;13.40;99.90
8662;DHT22;29684;47.722;9.388;2022-09-13T06:29:38;13.60;99.90
8662;DHT22;29684;47.722;9.388;2022-09-13T06:32:22;13.90;99.90
8662;DHT22;29684;47.722;9.388;2022-09-13T06:35:06;14.00;99.90
8662;DHT22;29684;47.722;9.388;2022-09-13T06:37:54;14.00;99.90
8662;DHT22;29684;47.722;9.388;2022-09-13T06:40:39;14.10;99.90
8662;DHT22;29684;47.722;9.388;2022-09-13T06:43:24;14.30;99.90
8662;DHT22;29684;47.722;9.388;2022-09-13T06:46:13;14.40;99.90
8662;DHT22;29684;47.722;9.388;2022-09-13T06:49:00;14.70;99.90
8662;DHT22;29684;47.722;9.388;2022-09-13T06:51:44;14.90;99.90
8662;DHT22;29684;47.722;9.388;2022-09-13T06:54:29;14.90;99.90
8662;DHT22;29684;47.722;9.388;2022-09-13T06:57:13;15.10;99.90
8662;DHT22;29684;47.722;9.388;2022-09-13T06:59:57;15.40;99.90
8662;DHT22;29684;47.722;9.388;2022-09-13T07:02:42;15.50;99.90
8662;DHT22;29684;47.722;9.388;2022-09-13T07:05:26;15.60;99.90
8662;DHT22;29684;47.722;9.388;2022-09-13T07:08:10;15.70;99.90
8662;DHT22;29684;47.722;9.388;2022-09-13T07:10:56;15.80;99.90
8662;DHT22;29684;47.722;9.388;2022-09-13T07:13:41;15.90;99.90
8662;DHT22;29684;47.722;9.388;2022-09-13T07:16:27;16.00;99.90
8662;DHT22;29684;47.722;9.388;2022-09-13T07:19:25;16.10;99.90
8662;DHT22;29684;47.722;9.388;2022-09-13T07:22:10;16.30;99.90
8662;DHT22;29684;47.722;9.388;2022-09-13T07:24:54;16.40;99.90
8662;DHT22;29684;47.722;9.388;2022-09-13T07:27:38;16.60;99.90
8662;DHT22;29684;47.722;9.388;2022-09-13T07:30:22;16.70;99.90
8662;DHT22;29684;47.722;9.388;2022-09-13T07:33:09;16.70;99.90
8662;DHT22;29684;47.722;9.388;2022-09-13T07:35:55;16.70;99.90
8662;DHT22;29684;47.722;9.388;2022-09-13T07:38:42;16.90;99.90
8662;DHT22;29684;47.722;9.388;2022-09-13T07:41:30;16.80;99.90
8662;DHT22;29684;47.722;9.388;2022-09-13T07:44:15;17.00;99.90
8662;DHT22;29684;47.722;9.388;2022-09-13T07:46:59;17.20;99.90
8662;DHT22;29684;47.722;9.388;2022-09-13T07:49:43;17.30;99.90
8662;DHT22;29684;47.722;9.388;2022-09-13T07:52:28;17.30;99.90
8662;DHT22;29684;47.722;9.388;2022-09-13T07:55:13;17.20;99.90
8662;DHT22;29684;47.722;9.388;2022-09-13T07:57:56;17.20;99.90
8662;DHT22;29684;47.722;9.388;2022-09-13T08:00:42;17.30;99.90
8662;DHT22;29684;47.722;9.388;2022-09-13T08:03:26;17.50;99.90
8662;DHT22;29684;47.722;9.388;2022-09-13T08:06:11;17.60;99.90
8662;DHT22;29684;47.722;9.388;2022-09-13T08:08:55;17.80;99.90
8662;DHT22;29684;47.722;9.388;2022-09-13T08:11:48;17.80;99.90
8662;DHT22;29684;47.722;9.388;2022-09-13T08:14:35;17.80;99.90
8662;DHT22;29684;47.722;9.388;2022-09-13T08:17:19;17.70;99.90
8662;DHT22;29684;47.722;9.388;2022-09-13T08:20:03;17.90;99.90
8662;DHT22;29684;47.722;9.388;2022-09-13T08:22:48;18.00;99.90
8662;DHT22;29684;47.722;9.388;2022-09-13T08:25:33;18.20;99.90
8662;DHT22;29684;47.722;9.388;2022-09-13T08:28:19;19.00;99.90
8662;DHT22;29684;47.722;9.388;2022-09-13T08:31:10;18.40;99.90
8662;DHT22;29684;47.722;9.388;2022-09-13T08:33:56;18.60;99.90
8662;DHT22;29684;47.722;9.388;2022-09-13T08:36:41;18.70;99.90
8662;DHT22;29684;47.722;9.388;2022-09-13T08:39:25;18.90;99.90
8662;DHT22;29684;47.722;9.388;2022-09-13T08:42:30;18.80;99.90
8662;DHT22;29684;47.722;9.388;2022-09-13T08:45:19;19.00;99.90
8662;DHT22;29684;47.722;9.388;2022-09-13T08:48:18;19.30;99.90
8662;DHT22;29684;47.722;9.388;2022-09-13T08:51:05;19.40;99.90
8662;DHT22;29684;47.722;9.388;2022-09-13T08:53:51;19.50;99.90
8662;DHT22;29684;47.722;9.388;2022-09-13T08:59:59;19.60;99.90
8662;DHT22;29684;47.722;9.388;2022-09-13T09:05:58;19.80;99.90
8662;DHT22;29684;47.722;9.388;2022-09-13T09:08:56;19.90;99.90
8662;DHT22;29684;47.722;9.388;2022-09-13T09:12:09;20.10;99.90
8662;DHT22;29684;47.722;9.388;2022-09-13T09:15:14;20.30;99.90
8662;DHT22;29684;47.722;9.388;2022-09-13T09:18:24;20.50;99.90
8662;DHT22;29684;47.722;9.388;2022-09-13T09:21:16;20.50;99.90
8662;DHT22;29684;47.722;9.388;2022-09-13T09:24:02;20.70;99.90
8662;DHT22;29684;47.722;9.388;2022-09-13T09:26:47;20.80;99.90
8662;DHT22;29684;47.722;9.388;2022-09-13T09:29:32;21.10;99.90
8662;DHT22;29684;47.722;9.388;2022-09-13T09:33:00;21.30;99.90
8662;DHT22;29684;47.722;9.388;2022-09-13T09:35:59;21.30;99.90
8662;DHT22;29684;47.722;9.388;2022-09-13T09:38:45;21.50;99.90
8662;DHT22;29684;47.722;9.388;2022-09-13T09:41:32;21.50;99.90
8662;DHT22;29684;47.722;9.388;2022-09-13T09:44:24;21.60;99.90
8662;DHT22;29684;47.722;9.388;2022-09-13T09:50:13;21.90;99.90
8662;DHT22;29684;47.722;9.388;2022-09-13T09:53:17;22.00;99.90
8662;DHT22;29684;47.722;9.388;2022-09-13T09:59:00;22.50;99.90
8662;DHT22;29684;47.722;9.388;2022-09-13T10:01:45;22.70;99.90
8662;DHT22;29684;47.722;9.388;2022-09-13T10:04:30;22.80;99.90
8662;DHT22;29684;47.722;9.388;2022-09-13T10:07:30;23.00;99.90
8662;DHT22;29684;47.722;9.388;2022-09-13T10:10:20;23.00;99.90
8662;DHT22;29684;47.722;9.388;2022-09-13T10:13:15;23.10;99.90
8662;DHT22;29684;47.722;9.388;2022-09-13T10:16:05;23.40;99.90
8662;DHT22;29684;47.722;9.388;2022-09-13T10:18:50;23.50;99.90
8662;DHT22;29684;47.722;9.388;2022-09-13T10:21:34;23.40;99.90
8662;DHT22;29684;47.722;9.388;2022-09-13T10:24:20;23.30;99.90
8662;DHT22;29684;47.722;9.388;2022-09-13T10:27:23;23.40;99.90
8662;DHT22;29684;47.722;9.388;2022-09-13T10:30:33;23.70;99.90
8662;DHT22;29684;47.722;9.388;2022-09-13T10:33:37;24.10;99.90
8662;DHT22;29684;47.722;9.388;2022-09-13T10:36:51;24.00;99.90
8662;DHT22;29684;47.722;9.388;2022-09-13T10:39:36;24.20;99.90
8662;DHT22;29684;47.722;9.388;2022-09-13T10:42:32;24.10;99.90
8662;DHT22;29684;47.722;9.388;2022-09-13T10:45:26;24.20;99.90
8662;DHT22;29684;47.722;9.388;2022-09-13T10:48:14;24.10;99.90
8662;DHT22;29684;47.722;9.388;2022-09-13T10:54:22;24.70;99.90
8662;DHT22;29684;47.722;9.388;2022-09-13T10:57:34;24.90;99.90
8662;DHT22;29684;47.722;9.388;2022-09-13T11:00:27;25.10;99.90
8662;DHT22;29684;47.722;9.388;2022-09-13T11:31:58;25.60;99.90
8662;DHT22;29684;47.722;9.388;2022-09-13T11:35:20;25.90;99.90
8662;DHT22;29684;47.722;9.388;2022-09-13T11:56:24;26.10;99.90
8662;DHT22;29684;47.722;9.388;2022-09-13T12:02:25;26.30;99.90
8662;DHT22;29684;47.722;9.388;2022-09-13T12:05:16;26.50;99.90
8662;DHT22;29684;47.722;9.388;2022-09-13T12:11:02;26.40;99.90
8662;DHT22;29684;47.722;9.388;2022-09-13T12:13:54;26.50;99.90
8662;DHT22;29684;47.722;9.388;2022-09-13T12:19:44;26.70;99.90
8662;DHT22;29684;47.722;9.388;2022-09-13T12:22:32;27.00;99.90
8662;DHT22;29684;47.722;9.388;2022-09-13T12:25:22;27.80;99.90
8662;DHT22;29684;47.722;9.388;2022-09-13T12:31:10;28.90;99.90
8662;DHT22;29684;47.722;9.388;2022-09-13T12:33:56;28.70;99.90
8662;DHT22;29684;47.722;9.388;2022-09-13T12:46:34;29.50;99.90
8662;DHT22;29684;47.722;9.388;2022-09-13T12:49:47;29.40;99.90
8662;DHT22;29684;47.722;9.388;2022-09-13T12:52:39;30.00;99.90
8662;DHT22;29684;47.722;9.388;2022-09-13T12:55:41;30.60;99.90
8662;DHT22;29684;47.722;9.388;2022-09-13T13:01:33;31.20;99.90
8662;DHT22;29684;47.722;9.388;2022-09-13T13:04:40;30.60;99.90
8662;DHT22;29684;47.722;9.388;2022-09-13T13:07:24;30.70;99.90
8662;DHT22;29684;47.722;9.388;2022-09-13T13:10:25;30.60;99.90
8662;DHT22;29684;47.722;9.388;2022-09-13T13:13:22;30.60;99.90
8662;DHT22;29684;47.722;9.388;2022-09-13T13:16:25;30.80;99.90
8662;DHT22;29684;47.722;9.388;2022-09-13T13:19:31;30.80;99.90
8662;DHT22;29684;47.722;9.388;2022-09-13T13:25:36;30.90;99.90
8662;DHT22;29684;47.722;9.388;2022-09-13T13:28:49;30.40;99.90
8662;DHT22;29684;47.722;9.388;2022-09-13T13:31:36;30.20;99.90
8662;DHT22;29684;47.722;9.388;2022-09-13T13:40:23;30.30;99.90
8662;DHT22;29684;47.722;9.388;2022-09-13T13:43:28;28.90;99.90
8662;DHT22;29684;47.722;9.388;2022-09-13T14:01:19;29.30;99.90
8662;DHT22;29684;47.722;9.388;2022-09-13T14:04:07;29.50;99.90
8662;DHT22;29684;47.722;9.388;2022-09-13T14:19:16;28.30;99.90
8662;DHT22;29684;47.722;9.388;2022-09-13T14:22:23;28.20;99.90
8662;DHT22;29684;47.722;9.388;2022-09-13T14:25:22;27.40;99.90
8662;DHT22;29684;47.722;9.388;2022-09-13T14:28:06;27.10;99.90
8662;DHT22;29684;47.722;9.388;2022-09-13T14:30:56;27.00;99.90
8662;DHT22;29684;47.722;9.388;2022-09-13T14:33:42;27.00;99.90
8662;DHT22;29684;47.722;9.388;2022-09-13T14:36:26;27.20;99.90
8662;DHT22;29684;47.722;9.388;2022-09-13T14:39:11;27.50;99.90
8662;DHT22;29684;47.722;9.388;2022-09-13T14:42:02;27.90;99.90
8662;DHT22;29684;47.722;9.388;2022-09-13T14:44:54;28.40;99.90
8662;DHT22;29684;47.722;9.388;2022-09-13T14:48:07;28.60;99.90
8662;DHT22;29684;47.722;9.388;2022-09-13T14:50:55;28.70;99.90
8662;DHT22;29684;47.722;9.388;2022-09-13T14:53:42;28.50;99.90
8662;DHT22;29684;47.722;9.388;2022-09-13T14:57:04;28.20;99.90
8662;DHT22;29684;47.722;9.388;2022-09-13T14:59:47;28.30;99.90
8662;DHT22;29684;47.722;9.388;2022-09-13T15:02:37;28.50;99.90
8662;DHT22;29684;47.722;9.388;2022-09-13T15:05:32;29.00;99.90
8662;DHT22;29684;47.722;9.388;2022-09-13T15:11:32;29.70;99.90
8662;DHT22;29684;47.722;9.388;2022-09-13T15:17:09;31.20;99.90
8662;DHT22;29684;47.722;9.388;2022-09-13T15:20:04;30.70;99.90
8662;DHT22;29684;47.722;9.388;2022-09-13T15:22:49;31.00;99.90
8662;DHT22;29684;47.722;9.388;2022-09-13T15:25:36;31.80;99.90
8662;DHT22;29684;47.722;9.388;2022-09-13T15:28:27;32.70;99.90
8662;DHT22;29684;47.722;9.388;2022-09-13T15:31:20;33.50;99.90
8662;DHT22;29684;47.722;9.388;2022-09-13T15:37:08;33.10;99.90
8662;DHT22;29684;47.722;9.388;2022-09-13T15:40:13;32.90;99.90
8662;DHT22;29684;47.722;9.388;2022-09-13T15:42:57;33.00;99.90
8662;DHT22;29684;47.722;9.388;2022-09-13T15:45:43;32.90;99.90
8662;DHT22;29684;47.722;9.388;2022-09-13T15:48:33;32.40;99.90
8662;DHT22;29684;47.722;9.388;2022-09-13T15:51:18;32.10;99.90
8662;DHT22;29684;47.722;9.388;2022-09-13T15:54:09;32.00;99.90
8662;DHT22;29684;47.722;9.388;2022-09-13T15:56:54;31.80;99.90
8662;DHT22;29684;47.722;9.388;2022-09-13T15:59:38;31.50;99.90
8662;DHT22;29684;47.722;9.388;2022-09-13T16:02:25;31.00;99.90
8662;DHT22;29684;47.722;9.388;2022-09-13T16:05:09;30.60;99.90
8662;DHT22;29684;47.722;9.388;2022-09-13T16:07:55;30.10;99.90
8662;DHT22;29684;47.722;9.388;2022-09-13T16:10:41;29.70;99.90
8662;DHT22;29684;47.722;9.388;2022-09-13T16:13:25;29.60;99.90
8662;DHT22;29684;47.722;9.388;2022-09-13T16:16:12;29.60;99.90
8662;DHT22;29684;47.722;9.388;2022-09-13T16:18:57;29.40;99.90
8662;DHT22;29684;47.722;9.388;2022-09-13T16:21:41;29.00;99.90
8662;DHT22;29684;47.722;9.388;2022-09-13T16:24:25;28.70;99.90
8662;DHT22;29684;47.722;9.388;2022-09-13T16:27:15;28.00;99.90
8662;DHT22;29684;47.722;9.388;2022-09-13T16:30:00;27.30;99.90
8662;DHT22;29684;47.722;9.388;2022-09-13T16:32:44;26.60;99.90
8662;DHT22;29684;47.722;9.388;2022-09-13T16:35:30;26.20;99.90
8662;DHT22;29684;47.722;9.388;2022-09-13T16:38:15;25.70;99.90
8662;DHT22;29684;47.722;9.388;2022-09-13T16:40:59;25.70;99.90
8662;DHT22;29684;47.722;9.388;2022-09-13T16:43:47;25.90;99.90
8662;DHT22;29684;47.722;9.388;2022-09-13T16:46:32;26.00;99.90
8662;DHT22;29684;47.722;9.388;2022-09-13T16:49:16;25.80;99.90
8662;DHT22;29684;47.722;9.388;2022-09-13T16:52:01;25.70;99.90
8662;DHT22;29684;47.722;9.388;2022-09-13T16:54:46;25.60;99.90
8662;DHT22;29684;47.722;9.388;2022-09-13T16:57:32;25.30;99.90
8662;DHT22;29684;47.722;9.388;2022-09-13T17:00:17;25.20;99.90
8662;DHT22;29684;47.722;9.388;2022-09-13T17:03:03;25.00;99.90
8662;DHT22;29684;47.722;9.388;2022-09-13T17:05:57;24.80;99.90
8662;DHT22;29684;47.722;9.388;2022-09-13T17:08:50;24.60;99.90
8662;DHT22;29684;47.722;9.388;2022-09-13T17:11:39;24.30;99.90
8662;DHT22;29684;47.722;9.388;2022-09-13T17:14:24;24.20;99.90
8662;DHT22;29684;47.722;9.388;2022-09-13T17:17:08;24.00;99.90
8662;DHT22;29684;47.722;9.388;2022-09-13T17:19:52;23.80;99.90
8662;DHT22;29684;47.722;9.388;2022-09-13T17:22:37;23.70;99.90
8662;DHT22;29684;47.722;9.388;2022-09-13T17:25:21;23.50;99.90
8662;DHT22;29684;47.722;9.388;2022-09-13T17:28:06;23.30;99.90
8662;DHT22;29684;47.722;9.388;2022-09-13T17:30:50;23.20;99.90
8662;DHT22;29684;47.722;9.388;2022-09-13T17:33:34;23.10;99.90
8662;DHT22;29684;47.722;9.388;2022-09-13T17:36:19;22.90;99.90
8662;DHT22;29684;47.722;9.388;2022-09-13T17:39:03;22.70;99.90
8662;DHT22;29684;47.722;9.388;2022-09-13T17:41:48;22.50;99.90
8662;DHT22;29684;47.722;9.388;2022-09-13T17:44:33;22.30;99.90
8662;DHT22;29684;47.722;9.388;2022-09-13T17:47:16;22.20;99.90
8662;DHT22;29684;47.722;9.388;2022-09-13T17:50:01;22.20;99.90
8662;DHT22;29684;47.722;9.388;2022-09-13T17:52:46;22.20;99.90
8662;DHT22;29684;47.722;9.388;2022-09-13T17:55:30;22.20;99.90
8662;DHT22;29684;47.722;9.388;2022-09-13T17:58:15;22.20;99.90
8662;DHT22;29684;47.722;9.388;2022-09-13T18:01:07;22.10;99.90
8662;DHT22;29684;47.722;9.388;2022-09-13T18:03:53;21.90;99.90
8662;DHT22;29684;47.722;9.388;2022-09-13T18:06:39;21.80;99.90
8662;DHT22;29684;47.722;9.388;2022-09-13T18:09:25;21.70;99.90
8662;DHT22;29684;47.722;9.388;2022-09-13T18:12:10;21.50;99.90
8662;DHT22;29684;47.722;9.388;2022-09-13T18:14:54;21.50;99.90
8662;DHT22;29684;47.722;9.388;2022-09-13T18:17:39;21.40;99.90
8662;DHT22;29684;47.722;9.388;2022-09-13T18:20:23;21.40;99.90
8662;DHT22;29684;47.722;9.388;2022-09-13T18:23:08;21.40;99.90
8662;DHT22;29684;47.722;9.388;2022-09-13T18:26:03;21.30;99.90
8662;DHT22;29684;47.722;9.388;2022-09-13T18:28:56;21.40;99.90
8662;DHT22;29684;47.722;9.388;2022-09-13T18:34:26;21.40;99.90
8662;DHT22;29684;47.722;9.388;2022-09-13T18:37:10;21.40;99.90
8662;DHT22;29684;47.722;9.388;2022-09-13T18:39:54;21.40;99.90
8662;DHT22;29684;47.722;9.388;2022-09-13T18:42:39;21.40;99.90
8662;DHT22;29684;47.722;9.388;2022-09-13T18:45:23;21.30;99.90
8662;DHT22;29684;47.722;9.388;2022-09-13T18:48:07;21.20;99.90
8662;DHT22;29684;47.722;9.388;2022-09-13T18:50:51;21.20;99.90
8662;DHT22;29684;47.722;9.388;2022-09-13T18:53:35;21.20;99.90
8662;DHT22;29684;47.722;9.388;2022-09-13T18:56:21;21.10;99.90
8662;DHT22;29684;47.722;9.388;2022-09-13T18:59:06;20.80;99.90
8662;DHT22;29684;47.722;9.388;2022-09-13T19:01:51;20.60;99.90
8662;DHT22;29684;47.722;9.388;2022-09-13T19:04:35;20.50;99.90
8662;DHT22;29684;47.722;9.388;2022-09-13T19:07:20;20.40;99.90
8662;DHT22;29684;47.722;9.388;2022-09-13T19:10:05;20.40;99.90
8662;DHT22;29684;47.722;9.388;2022-09-13T19:12:50;20.30;99.90
8662;DHT22;29684;47.722;9.388;2022-09-13T19:15:34;20.30;99.90
8662;DHT22;29684;47.722;9.388;2022-09-13T19:18:19;20.30;99.90
8662;DHT22;29684;47.722;9.388;2022-09-13T19:21:33;20.20;99.90
8662;DHT22;29684;47.722;9.388;2022-09-13T19:24:17;20.20;99.90
8662;DHT22;29684;47.722;9.388;2022-09-13T19:27:02;20.20;99.90
8662;DHT22;29684;47.722;9.388;2022-09-13T19:29:46;20.10;99.90
8662;DHT22;29684;47.722;9.388;2022-09-13T19:32:32;20.10;99.90
8662;DHT22;29684;47.722;9.388;2022-09-13T19:35:16;20.10;99.90
8662;DHT22;29684;47.722;9.388;2022-09-13T19:38:01;20.10;99.90
8662;DHT22;29684;47.722;9.388;2022-09-13T19:41:05;20.00;99.90
8662;DHT22;29684;47.722;9.388;2022-09-13T19:43:55;19.90;99.90
8662;DHT22;29684;47.722;9.388;2022-09-13T19:46:40;19.70;99.90
8662;DHT22;29684;47.722;9.388;2022-09-13T19:49:25;19.60;99.90
8662;DHT22;29684;47.722;9.388;2022-09-13T19:52:09;19.60;99.90
8662;DHT22;29684;47.722;9.388;2022-09-13T19:54:54;19.50;99.90
8662;DHT22;29684;47.722;9.388;2022-09-13T19:57:41;19.50;99.90
8662;DHT22;29684;47.722;9.388;2022-09-13T20:00:25;19.50;99.90
8662;DHT22;29684;47.722;9.388;2022-09-13T20:03:10;19.60;99.90
8662;DHT22;29684;47.722;9.388;2022-09-13T20:06:01;19.70;99.90
8662;DHT22;29684;47.722;9.388;2022-09-13T20:08:46;19.80;99.90
8662;DHT22;29684;47.722;9.388;2022-09-13T20:11:31;19.90;99.90
8662;DHT22;29684;47.722;9.388;2022-09-13T20:14:18;19.80;99.90
8662;DHT22;29684;47.722;9.388;2022-09-13T20:17:03;19.80;99.90
8662;DHT22;29684;47.722;9.388;2022-09-13T20:19:49;19.70;99.90
8662;DHT22;29684;47.722;9.388;2022-09-13T20:22:33;19.60;99.90
8662;DHT22;29684;47.722;9.388;2022-09-13T20:25:17;19.70;99.90
8662;DHT22;29684;47.722;9.388;2022-09-13T20:28:02;19.70;99.90
8662;DHT22;29684;47.722;9.388;2022-09-13T20:30:54;19.90;99.90
8662;DHT22;29684;47.722;9.388;2022-09-13T20:33:39;20.00;99.90
8662;DHT22;29684;47.722;9.388;2022-09-13T20:36:25;20.00;99.90
8662;DHT22;29684;47.722;9.388;2022-09-13T20:39:10;20.00;99.90
8662;DHT22;29684;47.722;9.388;2022-09-13T20:41:55;20.00;99.90
8662;DHT22;29684;47.722;9.388;2022-09-13T20:44:39;19.90;99.90
8662;DHT22;29684;47.722;9.388;2022-09-13T20:47:26;19.80;99.90
8662;DHT22;29684;47.722;9.388;2022-09-13T20:50:11;19.80;99.90
8662;DHT22;29684;47.722;9.388;2022-09-13T20:52:55;19.90;99.90
8662;DHT22;29684;47.722;9.388;2022-09-13T20:55:41;19.90;99.90
8662;DHT22;29684;47.722;9.388;2022-09-13T20:58:26;20.00;99.90
8662;DHT22;29684;47.722;9.388;2022-09-13T21:01:16;20.00;99.90